Time;durP1;ratioP1;P1;durP2;ratioP2;P2;SDS_P1;SDS_P2;PMS_P1;PMS_P2;Temp;Humidity;BMP_temperature;BMP_pressure;BME280_temperature;BME280_humidity;BME280_pressure;Samples;Min_cycle;Max_cycle;Signal;HPM_P1;HPM_P2
2024/03/01 00:01:30;;;;;;;;;54.00;40.00;;;;;-143.90;100.00;75478.22;4961447;28;102664;-81
2024/03/01 00:03:57;;;;;;;;;42.25;34.25;;;;;-143.90;100.00;75480.28;4954303;28;108919;-77
2024/03/01 00:06:24;;;;;;;;;36.00;28.25;;;;;-143.90;100.00;75484.41;4961958;28;102005;-81
2024/03/01 00:08:51;;;;;;;;;30.50;26.50;;;;;-143.90;100.00;75500.94;4963234;28;105119;-81
2024/03/01 00:11:17;;;;;;;;;50.25;40.00;;;;;-143.90;100.00;75503.03;4964554;28;102090;-81
2024/03/01 00:13:44;;;;;;;;;52.25;39.00;;;;;-143.90;100.00;75507.16;4964317;28;104261;-82
2024/03/01 00:16:11;;;;;;;;;50.75;41.00;;;;;-143.90;100.00;75511.28;4954903;28;102828;-81
2024/03/01 00:18:38;;;;;;;;;29.75;22.75;;;;;-143.90;100.00;75507.16;4963493;28;102085;-82
2024/03/01 00:21:04;;;;;;;;;36.00;30.00;;;;;-143.90;100.00;75513.34;4965471;28;103935;-81
2024/03/01 00:23:31;;;;;;;;;35.75;33.00;;;;;-143.90;100.00;75517.50;4958912;28;103987;-81
2024/03/01 00:25:58;;;;;;;;;32.75;27.00;;;;;-143.90;100.00;75519.56;4956959;28;101947;-80
2024/03/01 00:28:24;;;;;;;;;34.25;31.50;;;;;-143.90;100.00;75523.69;4966044;28;102597;-81
2024/03/01 00:30:51;;;;;;;;;34.75;28.25;;;;;-143.90;100.00;75531.97;4966417;28;102590;-81
2024/03/01 00:33:18;;;;;;;;;26.00;23.25;;;;;-143.90;100.00;75536.09;4964516;28;104138;-81
2024/03/01 00:35:45;;;;;;;;;65.67;48.67;;;;;-143.90;100.00;75548.50;4947960;28;102339;-81
2024/03/01 00:38:11;;;;;;;;;84.00;61.33;;;;;-143.90;100.00;75552.63;4935186;28;104254;-81
2024/03/01 00:40:38;;;;;;;;;79.67;57.00;;;;;-143.90;100.00;75552.63;4964364;28;101974;-81
2024/03/01 00:43:05;;;;;;;;;63.00;49.00;;;;;-143.90;100.00;75544.38;4953996;27;104119;-80
2024/03/01 00:45:32;;;;;;;;;73.33;53.33;;;;;-143.90;100.00;75560.91;4953471;28;105881;-81
2024/03/01 00:47:58;;;;;;;;;85.00;63.00;;;;;-143.90;100.00;75571.25;4950363;28;102048;-80
2024/03/01 00:50:26;;;;;;;;;82.67;59.33;;;;;-143.90;100.00;75577.44;4964239;28;102653;-81
2024/03/01 00:52:53;;;;;;;;;73.33;56.67;;;;;-143.90;100.00;75560.91;4963616;28;103445;-80
2024/03/01 00:55:19;;;;;;;;;79.00;58.67;;;;;-143.90;100.00;75560.91;4937126;28;102532;-81
2024/03/01 00:57:46;;;;;;;;;67.33;52.00;;;;;-143.90;100.00;75548.50;4960042;28;102582;-81
2024/03/01 01:00:13;;;;;;;;;75.00;56.33;;;;;-143.90;100.00;75544.38;4952064;28;102497;-80
2024/03/01 01:02:40;;;;;;;;;82.33;57.33;;;;;-143.90;100.00;75544.38;4962211;28;104057;-80
2024/03/01 01:05:09;;;;;;;;;73.67;56.00;;;;;-143.90;100.00;75538.16;4965880;28;102686;-80
2024/03/01 01:07:36;;;;;;;;;74.00;54.33;;;;;-143.90;100.00;75531.97;4959307;28;102246;-81
2024/03/01 01:10:04;;;;;;;;;19.00;5.33;;;;;-143.90;100.00;75531.97;4948187;28;102470;-77
2024/03/01 01:12:31;;;;;;;;;72.67;54.00;;;;;-143.90;100.00;75529.91;4969213;28;104067;-81
2024/03/01 01:14:58;;;;;;;;;67.33;53.00;;;;;-143.90;100.00;75544.38;4973454;28;101864;-81
2024/03/01 01:17:26;;;;;;;;;60.33;48.67;;;;;-143.90;100.00;75534.03;4965698;28;102336;-81
2024/03/01 01:19:57;;;;;;;;;64.33;50.00;;;;;-143.90;100.00;75536.09;4956345;28;102090;-81
2024/03/01 01:22:25;;;;;;;;;76.33;55.00;;;;;-143.90;100.00;75544.38;4963735;28;103823;-81
2024/03/01 01:24:52;;;;;;;;;61.00;46.67;;;;;-143.90;100.00;75538.16;4949119;28;102909;-82
2024/03/01 01:27:19;;;;;;;;;64.67;47.67;;;;;-143.90;100.00;75544.38;4966858;28;102297;-81
2024/03/01 01:29:46;;;;;;;;;67.00;51.67;;;;;-143.90;100.00;75552.63;4961800;28;102814;-81
2024/03/01 01:32:13;;;;;;;;;58.33;40.00;;;;;-143.90;100.00;75548.50;4950489;28;104197;-81
2024/03/01 01:34:39;;;;;;;;;53.75;39.00;;;;;-143.90;100.00;75544.38;4963059;28;102038;-81
2024/03/01 01:37:06;;;;;;;;;39.50;32.50;;;;;-143.90;100.00;75540.22;4964755;28;102757;-81
2024/03/01 01:39:33;;;;;;;;;40.25;35.25;;;;;-143.90;100.00;75534.03;4963215;28;104145;-80
2024/03/01 01:42:00;;;;;;;;;32.75;30.25;;;;;-143.90;100.00;75538.16;4950650;28;108770;-81
2024/03/01 01:44:26;;;;;;;;;62.00;50.67;;;;;-143.90;100.00;75550.56;4958404;28;104832;-82
2024/03/01 01:46:53;;;;;;;;;66.00;51.00;;;;;-143.90;100.00;75538.16;4960065;28;102327;-81
2024/03/01 01:49:23;;;;;;;;;61.00;47.33;;;;;-143.90;100.00;75527.81;4963615;28;102384;-81
2024/03/01 01:51:51;;;;;;;;;61.67;48.33;;;;;-143.90;100.00;75517.50;4941162;28;104217;-81
2024/03/01 01:54:18;;;;;;;;;57.00;46.33;;;;;-143.90;100.00;75511.28;4954668;28;102196;-81
2024/03/01 01:56:46;;;;;;;;;54.67;44.00;;;;;-143.90;100.00;75513.34;4961959;28;102644;-81
2024/03/01 01:59:13;;;;;;;;;46.75;39.25;;;;;-143.90;100.00;75503.03;4959128;28;102510;-81
2024/03/01 02:01:40;;;;;;;;;40.25;37.75;;;;;-143.90;100.00;75498.88;4941799;28;104026;-81
2024/03/01 02:04:07;;;;;;;;;34.75;29.50;;;;;-143.90;100.00;75500.94;4949829;28;105349;-81
2024/03/01 02:06:34;;;;;;;;;34.75;28.50;;;;;-143.90;100.00;75498.88;4958798;28;104368;-80
2024/03/01 02:09:01;;;;;;;;;34.25;30.75;;;;;-143.90;100.00;75490.63;4963286;28;102275;-81
2024/03/01 02:11:28;;;;;;;;;34.50;27.75;;;;;-143.90;100.00;75492.69;4955276;28;104316;-82
2024/03/01 02:13:55;;;;;;;;;31.25;27.00;;;;;-143.90;100.00;75488.53;4954616;28;103026;-81
2024/03/01 02:16:23;;;;;;;;;21.75;20.25;;;;;-143.90;100.00;75494.75;4960035;28;102446;-81
2024/03/01 02:18:50;;;;;;;;;21.50;17.25;;;;;-143.90;100.00;75498.88;4960580;28;103427;-80
2024/03/01 02:21:22;;;;;;;;;53.50;42.00;;;;;-143.90;100.00;75513.34;4955816;28;104037;-81
2024/03/01 02:23:49;;;;;;;;;54.33;42.67;;;;;-143.90;100.00;75519.56;4957618;28;102213;-81
2024/03/01 02:26:16;;;;;;;;;58.00;44.00;;;;;-143.90;100.00;75509.22;4938811;28;102450;-81
2024/03/01 02:28:44;;;;;;;;;72.67;54.00;;;;;-143.90;100.00;75507.16;4962640;28;103230;-81
2024/03/01 02:31:12;;;;;;;;;66.67;52.33;;;;;-143.90;100.00;75511.28;4960582;28;104202;-81
2024/03/01 02:33:38;;;;;;;;;66.00;50.67;;;;;-143.90;100.00;75511.28;4956106;28;102410;-79
2024/03/01 02:36:06;;;;;;;;;68.33;51.33;;;;;-143.90;100.00;75519.56;4950655;28;102436;-80
2024/03/01 02:38:32;;;;;;;;;65.00;48.00;;;;;-143.90;100.00;75531.97;4961806;28;102603;-80
2024/03/01 02:40:59;;;;;;;;;64.33;49.33;;;;;-143.90;100.00;75531.97;4957008;28;104216;-81
2024/03/01 02:43:26;;;;;;;;;62.33;48.67;;;;;-143.90;100.00;75531.97;4950324;28;101976;-81
2024/03/01 02:45:53;;;;;;;;;61.00;49.00;;;;;-143.90;100.00;75531.97;4951706;28;102594;-82
2024/03/01 02:48:20;;;;;;;;;52.50;41.50;;;;;-143.90;100.00;75527.81;4953899;28;102553;-82
2024/03/01 02:50:46;;;;;;;;;47.75;38.75;;;;;-143.90;100.00;75519.56;4952312;28;103985;-80
2024/03/01 02:53:13;;;;;;;;;63.33;49.00;;;;;-143.90;100.00;75544.38;4960377;28;102781;-80
2024/03/01 02:55:39;;;;;;;;;70.00;53.67;;;;;-143.90;100.00;75589.84;4961747;28;103823;-81
2024/03/01 02:58:06;;;;;;;;;78.00;59.67;;;;;-143.90;100.00;75579.53;4953383;28;102237;-81
2024/03/01 03:00:34;;;;;;;;;76.00;55.33;;;;;-143.90;100.00;75536.09;4965116;28;103956;-80
2024/03/01 03:03:00;;;;;;;;;76.33;56.00;;;;;-143.90;100.00;75521.63;4950775;28;103444;-81
2024/03/01 03:05:27;;;;;;;;;71.00;55.00;;;;;-143.90;100.00;75519.56;4961758;28;102063;-80
2024/03/01 03:07:54;;;;;;;;;57.00;46.67;;;;;-143.90;100.00;75519.56;4956814;28;104779;-81
2024/03/01 03:10:21;;;;;;;;;44.50;37.75;;;;;-143.90;100.00;75523.69;4958336;28;105351;-80
2024/03/01 03:12:47;;;;;;;;;45.00;32.75;;;;;-143.90;100.00;75536.09;4963060;28;105072;-80
2024/03/01 03:15:16;;;;;;;;;56.67;42.00;;;;;-143.90;100.00;75544.38;4960880;28;102320;-81
2024/03/01 03:17:44;;;;;;;;;71.00;54.33;;;;;-143.90;100.00;75531.97;4962522;28;102321;-81
2024/03/01 03:20:11;;;;;;;;;64.67;51.00;;;;;-143.90;100.00;75538.16;4943214;28;104104;-80
2024/03/01 03:22:47;;;;;;;;;78.00;58.00;;;;;-143.90;100.00;75548.50;4958483;28;102095;-81
2024/03/01 03:25:14;;;;;;;;;73.67;54.00;;;;;-143.90;100.00;75536.09;4959726;28;102386;-81
2024/03/01 03:27:42;;;;;;;;;64.00;52.00;;;;;-143.90;100.00;75536.09;4962628;28;101960;-81
2024/03/01 03:30:10;;;;;;;;;55.33;41.33;;;;;-143.90;100.00;75534.03;4945356;28;103965;-81
2024/03/01 03:32:37;;;;;;;;;48.25;38.75;;;;;-143.90;100.00;75544.38;4942818;28;102001;-80
2024/03/01 03:35:04;;;;;;;;;50.67;37.67;;;;;-143.90;100.00;75546.44;4943842;28;101912;-79
2024/03/01 03:37:32;;;;;;;;;25.50;23.50;;;;;-143.90;100.00;75562.97;4962510;28;102309;-81
2024/03/01 03:39:59;;;;;;;;;36.00;30.25;;;;;-143.90;100.00;75552.63;4955651;28;108918;-79
2024/03/01 03:42:26;;;;;;;;;31.50;29.00;;;;;-143.90;100.00;75560.91;4966306;28;102382;-80
2024/03/01 03:44:53;;;;;;;;;35.50;27.00;;;;;-143.90;100.00;75569.19;4965635;28;105108;-81
2024/03/01 03:47:20;;;;;;;;;48.33;38.67;;;;;-143.90;100.00;75585.72;4966712;28;101902;-81
2024/03/01 03:49:47;;;;;;;;;59.67;46.00;;;;;-143.90;100.00;75585.72;4960406;28;104085;-81
2024/03/01 03:52:14;;;;;;;;;53.67;40.67;;;;;-143.90;100.00;75594.00;4957229;28;102275;-81
2024/03/01 03:54:42;;;;;;;;;41.00;32.25;;;;;-143.90;100.00;75591.94;4969205;28;101967;-80
2024/03/01 03:57:09;;;;;;;;;47.75;36.25;;;;;-143.90;100.00;75598.13;4965613;28;101957;-81
2024/03/01 03:59:36;;;;;;;;;32.50;26.50;;;;;-143.90;100.00;75606.41;4966960;28;103958;-80
2024/03/01 04:02:03;;;;;;;;;57.67;46.00;;;;;-143.90;100.00;75627.06;4950961;28;103757;-79
2024/03/01 04:04:30;;;;;;;;;74.33;55.33;;;;;-143.90;100.00;75645.69;4954285;28;103557;-80
2024/03/01 04:06:57;;;;;;;;;81.33;62.00;;;;;-143.90;100.00;75649.81;4965075;28;102399;-80
2024/03/01 04:09:25;;;;;;;;;75.33;56.67;;;;;-143.90;100.00;75647.75;4963001;28;103966;-80
2024/03/01 04:11:52;;;;;;;;;63.67;50.00;;;;;-143.90;100.00;75656.03;4953121;28;102236;-82
2024/03/01 04:14:19;;;;;;;;;55.67;44.00;;;;;-143.90;100.00;75653.94;4956467;28;102735;-81
2024/03/01 04:16:46;;;;;;;;;61.33;43.00;;;;;-143.90;100.00;75647.75;4939019;28;102608;-81
2024/03/01 04:19:13;;;;;;;;;79.00;57.67;;;;;-143.90;100.00;75643.63;4927486;28;104003;-81
2024/03/01 04:21:42;;;;;;;;;77.00;58.00;;;;;-143.90;100.00;75631.22;4951923;28;102183;-81
2024/03/01 04:24:11;;;;;;;;;62.00;49.33;;;;;-143.90;100.00;75622.94;4949159;28;102835;-81
2024/03/01 04:26:39;;;;;;;;;49.00;43.33;;;;;-143.90;100.00;75622.94;4957473;28;104443;-81
2024/03/01 04:29:07;;;;;;;;;55.33;41.33;;;;;-143.90;100.00;75643.63;4960170;28;103986;-82
2024/03/01 04:31:35;;;;;;;;;51.00;40.00;;;;;-143.90;100.00;75643.63;4959793;28;105224;-81
2024/03/01 04:34:05;;;;;;;;;50.33;40.33;;;;;-143.90;100.00;75651.88;4947174;28;102469;-78
2024/03/01 04:36:33;;;;;;;;;49.33;37.67;;;;;-143.90;100.00;75658.09;4964327;28;102503;-78
2024/03/01 04:39:00;;;;;;;;;57.67;43.00;;;;;-143.90;100.00;75666.34;4962370;28;108811;-78
2024/03/01 04:41:27;;;;;;;;;66.33;46.67;;;;;-143.90;100.00;75660.16;4957777;28;103952;-79
2024/03/01 04:43:54;;;;;;;;;54.00;43.00;;;;;-143.90;100.00;75664.28;4949742;28;102389;-79
2024/03/01 04:46:20;;;;;;;;;56.67;43.00;;;;;-143.90;100.00;75660.16;4958042;28;103602;-79
2024/03/01 04:48:47;;;;;;;;;54.67;41.33;;;;;-143.90;100.00;75649.81;4946659;28;102801;-78
2024/03/01 04:51:14;;;;;;;;;40.33;26.67;;;;;-143.90;100.00;75668.44;4953541;28;106594;-79
2024/03/01 04:53:41;;;;;;;;;32.25;28.25;;;;;-143.90;100.00;75664.28;4959593;28;102535;-78
2024/03/01 04:56:09;;;;;;;;;35.25;29.25;;;;;-143.90;100.00;75666.34;4953904;28;102417;-78
2024/03/01 04:58:36;;;;;;;;;45.50;36.75;;;;;-143.90;100.00;75664.28;4961502;28;104301;-76
2024/03/01 05:01:04;;;;;;;;;62.00;46.00;;;;;-143.90;100.00;75666.34;4963717;28;102474;-78
2024/03/01 05:03:31;;;;;;;;;71.33;55.00;;;;;-143.90;100.00;75664.28;4963473;28;104464;-78
2024/03/01 05:05:58;;;;;;;;;60.33;45.33;;;;;-143.90;100.00;75664.28;4953345;28;102150;-74
2024/03/01 05:08:25;;;;;;;;;49.67;38.00;;;;;-143.90;100.00;75664.28;4961523;28;104003;-79
2024/03/01 05:10:52;;;;;;;;;41.00;34.00;;;;;-143.90;100.00;75664.28;4962315;28;102126;-78
2024/03/01 05:13:19;;;;;;;;;44.50;37.25;;;;;-143.90;100.00;75664.28;4960222;28;104451;-78
2024/03/01 05:15:48;;;;;;;;;32.00;27.00;;;;;-143.90;100.00;75666.34;4956624;28;102507;-78
2024/03/01 05:18:14;;;;;;;;;33.25;27.25;;;;;-143.90;100.00;75668.44;4940766;27;104249;-78
2024/03/01 05:20:44;;;;;;;;;29.25;25.00;;;;;-143.90;100.00;75676.69;4957630;28;102584;-77
2024/03/01 05:23:10;;;;;;;;;19.25;15.00;;;;;-143.90;100.00;75684.97;4958057;27;103187;-78
2024/03/01 05:25:43;;;;;;;;;25.25;20.75;;;;;-143.90;100.00;75693.25;4950637;28;102641;-78
2024/03/01 05:28:10;;;;;;;;;30.00;27.25;;;;;-143.90;100.00;75701.50;4950615;28;104221;-79
2024/03/01 05:30:36;;;;;;;;;54.67;41.00;;;;;-143.90;100.00;75697.38;4941403;28;102465;-78
2024/03/01 05:33:17;;;;;;;;;46.50;37.75;;;;;-143.90;100.00;75693.25;4953229;28;102775;-77
2024/03/01 05:35:44;;;;;;;;;42.67;36.67;;;;;-143.90;100.00;75684.97;4960691;28;102377;-78
2024/03/01 05:38:11;;;;;;;;;73.33;57.00;;;;;-143.90;100.00;75691.16;4942410;28;104011;-77
2024/03/01 05:40:37;;;;;;;;;79.25;60.25;;;;;-143.90;100.00;75697.38;4960607;28;102470;-77
2024/03/01 05:43:21;;;;;;;;;91.75;68.00;;;;;-143.90;100.00;75705.66;4954926;28;102911;-78
2024/03/01 05:45:49;;;;;;;;;84.33;64.00;;;;;-143.90;100.00;75693.25;4950726;28;102257;-78
2024/03/01 05:48:18;;;;;;;;;77.33;56.00;;;;;-143.90;100.00;75684.97;4950824;28;103792;-79
2024/03/01 05:50:44;;;;;;;;;70.33;50.00;;;;;-143.90;100.00;75691.16;4960319;28;105829;-77
2024/03/01 05:53:14;;;;;;;;;65.00;50.67;;;;;-143.90;100.00;75713.91;4937063;28;102951;-78
2024/03/01 05:55:43;;;;;;;;;61.67;48.33;;;;;-143.90;100.00;75718.06;4953440;28;102704;-78
2024/03/01 05:58:10;;;;;;;;;49.67;41.33;;;;;-143.90;100.00;75709.78;4947112;28;104012;-78
2024/03/01 06:00:42;;;;;;;;;64.33;50.33;;;;;-143.90;100.00;75711.84;4956163;28;102441;-78
2024/03/01 06:03:10;;;;;;;;;35.00;29.67;;;;;-143.90;100.00;75713.91;4955727;28;101963;-78
2024/03/01 06:05:37;;;;;;;;;42.67;37.00;;;;;-143.90;100.00;75722.19;4953326;28;104787;-78
2024/03/01 06:08:04;;;;;;;;;53.67;39.67;;;;;-143.90;100.00;75715.97;4953407;28;104243;-78
2024/03/01 06:10:30;;;;;;;;;48.33;40.33;;;;;-143.90;100.00;75713.91;4952426;28;102441;-79
2024/03/01 06:12:57;;;;;;;;;43.25;36.00;;;;;-143.90;100.00;75705.66;4958047;28;102685;-79
2024/03/01 06:15:26;;;;;;;;;37.25;32.25;;;;;-143.90;100.00;75703.56;4942790;28;102727;-78
2024/03/01 06:17:53;;;;;;;;;41.25;35.75;;;;;-143.90;100.00;75701.50;4947821;28;103980;-80
2024/03/01 06:20:20;;;;;;;;;40.75;34.50;;;;;-143.90;100.00;75695.31;4960364;28;102299;-79
2024/03/01 06:22:46;;;;;;;;;47.00;38.33;;;;;-143.90;100.00;75682.91;4963335;28;102575;-78
2024/03/01 06:25:13;;;;;;;;;34.50;28.75;;;;;-143.90;100.00;75672.56;4963480;28;102432;-77
2024/03/01 06:27:40;;;;;;;;;62.33;49.33;;;;;-143.90;100.00;75674.63;4947417;28;109638;-78
2024/03/01 06:30:07;;;;;;;;;61.00;46.00;;;;;-143.90;100.00;75678.75;4948900;28;105529;-77
2024/03/01 06:32:34;;;;;;;;;91.33;65.00;;;;;-143.90;100.00;75693.25;4965184;28;102076;-78
2024/03/01 06:35:03;;;;;;;;;95.75;74.25;;;;;-143.90;100.00;75687.03;4950284;28;103577;-78
2024/03/01 06:37:30;;;;;;;;;104.00;79.50;;;;;-143.90;100.00;75680.84;4962182;28;104065;-78
2024/03/01 06:39:57;;;;;;;;;102.75;82.25;;;;;-143.90;100.00;75680.84;4957507;28;102444;-77
2024/03/01 06:42:23;;;;;;;;;135.25;108.50;;;;;-143.90;100.00;75680.84;4962525;28;102182;-78
2024/03/01 06:44:50;;;;;;;;;141.25;113.50;;;;;-143.90;100.00;75672.56;4954434;28;101960;-78
2024/03/01 06:47:17;;;;;;;;;125.25;102.75;;;;;-143.90;100.00;75668.44;4959873;28;104127;-78
2024/03/01 06:49:48;;;;;;;;;92.25;72.50;;;;;-143.90;100.00;75639.47;4956986;28;104949;-78
2024/03/01 06:52:15;;;;;;;;;85.50;64.75;;;;;-143.90;100.00;75616.72;4944687;28;102508;-76
2024/03/01 06:54:46;;;;;;;;;85.33;63.33;;;;;-143.90;100.00;75594.00;4961126;28;102141;-77
2024/03/01 06:57:13;;;;;;;;;71.33;55.67;;;;;-143.90;100.00;75589.84;4942410;28;104051;-77
2024/03/01 06:59:40;;;;;;;;;66.67;44.67;;;;;-143.90;100.00;75569.19;4935605;28;102369;-77
2024/03/01 07:02:06;;;;;;;;;56.00;44.00;;;;;-143.90;100.00;75552.63;4940563;28;102559;-77
2024/03/01 07:04:33;;;;;;;;;51.67;39.67;;;;;-143.90;100.00;75540.22;4963708;28;102499;-78
2024/03/01 07:07:00;;;;;;;;;43.50;32.75;;;;;-143.90;100.00;75517.50;4957476;28;104137;-79
2024/03/01 07:09:27;;;;;;;;;36.00;32.50;;;;;-143.90;100.00;75511.28;4959286;28;102200;-78
2024/03/01 07:11:54;;;;;;;;;27.25;24.00;;;;;-143.90;100.00;75494.75;4950136;28;104756;-78
2024/03/01 07:14:20;;;;;;;;;49.33;37.33;;;;;-143.90;100.00;75511.28;4960269;28;102926;-77
2024/03/01 07:16:47;;;;;;;;;47.00;39.75;;;;;-143.90;100.00;75482.34;4964344;28;104428;-78
2024/03/01 07:19:14;;;;;;;;;79.33;62.00;;;;;-143.90;100.00;75472.00;4957981;28;104153;-77
2024/03/01 07:21:40;;;;;;;;;77.33;57.00;;;;;-143.90;100.00;75463.72;4963644;28;101988;-79
2024/03/01 07:24:07;;;;;;;;;88.67;65.67;;;;;-143.90;100.00;75457.53;4952878;28;102413;-77
2024/03/01 07:26:34;;;;;;;;;82.00;63.33;;;;;-143.90;100.00;75461.66;4960745;28;104124;-76
2024/03/01 07:29:02;;;;;;;;;94.00;69.25;;;;;-143.90;100.00;75449.25;4958124;28;102802;-79
2024/03/01 07:31:29;;;;;;;;;83.00;64.67;;;;;-143.90;100.00;75428.59;4959050;28;102707;-79
2024/03/01 07:33:55;;;;;;;;;77.67;59.00;;;;;-143.90;100.00;75412.03;4954548;28;102331;-80
2024/03/01 07:36:22;;;;;;;;;77.33;58.67;;;;;-143.90;100.00;75397.56;4960801;28;105956;-78
2024/03/01 07:38:49;;;;;;;;;83.33;62.00;;;;;-143.90;100.00;75385.16;4959849;28;103129;-78
2024/03/01 07:41:18;;;;;;;;;88.00;62.67;;;;;-143.90;100.00;75370.69;4965122;28;102437;-78
2024/03/01 07:43:46;;;;;;;;;89.00;72.67;;;;;-143.90;100.00;75358.28;4958780;28;102042;-79
2024/03/01 07:46:13;;;;;;;;;105.50;83.25;;;;;-143.90;100.00;75345.88;4942285;27;104041;-78
2024/03/01 07:48:45;;;;;;;;;93.33;70.67;;;;;-143.90;100.00;75327.28;4958072;28;102455;-77
2024/03/01 07:51:12;;;;;;;;;81.33;59.33;;;;;-143.90;100.00;75304.53;4960648;28;102050;-78
2024/03/01 07:53:43;;;;;;;;;77.00;56.33;;;;;-143.90;100.00;75288.00;4964352;28;102468;-78
2024/03/01 07:56:10;;;;;;;;;70.67;53.00;;;;;-143.90;100.00;75277.66;4952502;28;108509;-78
2024/03/01 07:58:37;;;;;;;;;62.67;47.67;;;;;-143.90;100.00;75261.13;4950771;28;102360;-79
2024/03/01 08:01:05;;;;;;;;;83.00;61.33;;;;;-143.90;100.00;75256.97;4963644;28;102085;-78
2024/03/01 08:03:35;;;;;;;;;69.33;57.67;;;;;-143.90;100.00;75259.06;4953176;28;102814;-78
2024/03/01 08:06:02;;;;;;;;;77.00;56.33;;;;;-143.90;100.00;75240.44;4931848;28;104673;-78
2024/03/01 08:08:35;;;;;;;;;74.00;55.33;;;;;-143.90;100.00;75221.84;4958471;28;104800;-78
2024/03/01 08:11:07;;;;;;;;;74.00;57.00;;;;;-143.90;100.00;75209.44;4958384;28;102417;-77
2024/03/01 08:13:34;;;;;;;;;75.00;58.00;;;;;-143.90;100.00;75186.69;4966983;28;102336;-78
2024/03/01 08:16:07;;;;;;;;;68.00;52.33;;;;;-143.90;100.00;75168.09;4945949;28;103940;-76
2024/03/01 08:18:37;;;;;;;;;59.75;46.75;;;;;-143.90;100.00;75147.41;4964552;28;102218;-78
2024/03/01 08:21:07;;;;;;;;;55.00;43.00;;;;;-143.90;100.00;75139.16;4962715;28;101838;-77
2024/03/01 08:23:41;;;;;;;;;42.25;38.25;;;;;-143.90;100.00;75143.28;4960371;28;102718;-78
2024/03/01 08:26:15;;;;;;;;;53.25;44.00;;;;;-143.90;100.00;75132.94;4951764;28;108778;-78
2024/03/01 08:28:46;;;;;;;;;57.00;46.50;;;;;-143.90;100.00;75122.59;4953338;28;102343;-78
2024/03/01 08:31:26;;;;;;;;;77.00;57.67;;;;;-143.90;100.00;75128.81;4958891;28;102114;-78
2024/03/01 08:34:07;;;;;;;;;73.33;55.67;;;;;-143.90;100.00;75132.94;4943124;28;102216;-78
2024/03/01 08:36:35;;;;;;;;;78.33;59.67;;;;;-143.90;100.00;75120.53;4959871;28;104011;-78
2024/03/01 08:39:10;;;;;;;;;83.67;63.00;;;;;-143.90;100.00;75118.47;4965174;28;102822;-78
2024/03/01 08:41:39;;;;;;;;;72.67;55.00;;;;;-143.90;100.00;75081.25;4964543;28;102043;-77
2024/03/01 08:44:32;;;;;;;;;61.25;49.00;;;;;-143.90;100.00;75046.09;4959661;28;102622;-79
2024/03/01 08:46:59;;;;;;;;;71.67;56.00;;;;;-143.90;100.00;75035.78;4966014;28;108712;-79
2024/03/01 08:49:32;;;;;;;;;81.33;60.33;;;;;-143.90;100.00;75035.78;4965604;28;102236;-78
2024/03/01 08:51:59;;;;;;;;;72.00;53.67;;;;;-143.90;100.00;75010.97;4952547;28;102065;-77
2024/03/01 08:54:26;;;;;;;;;85.00;60.33;;;;;-143.90;100.00;75017.16;4964152;28;102357;-79
2024/03/01 08:57:25;;;;;;;;;76.33;59.00;;;;;-143.90;100.00;75006.84;4595946;23;105264;-73
2024/03/01 08:59:52;;;;;;;;;77.67;55.00;;;;;-143.90;100.00;74982.03;4929067;28;102231;-71
2024/03/01 09:02:45;;;;;;;;;57.25;46.00;;;;;-143.90;100.00;74965.50;4925001;28;101973;-72
2024/03/01 09:05:13;;;;;;;;;68.00;51.25;;;;;-143.90;100.00;74955.16;4922313;28;102445;-75
2024/03/01 09:07:41;;;;;;;;;68.25;52.50;;;;;-143.90;100.00;74936.53;4930973;28;109059;-72
2024/03/01 09:10:16;;;;;;;;;71.00;53.25;;;;;-143.90;100.00;74920.00;4922785;28;102185;-73
2024/03/01 09:12:44;;;;;;;;;61.00;47.25;;;;;-143.90;100.00;74874.53;4927217;28;101922;-73
2024/03/01 09:15:14;;;;;;;;;69.00;52.00;;;;;-143.90;100.00;74851.78;4928462;28;102083;-72
2024/03/01 09:17:41;;;;;;;;;59.25;46.50;;;;;-143.90;100.00;74810.44;4924477;28;109977;-72
2024/03/01 09:20:28;;;;;;;;;64.75;51.75;;;;;-143.90;100.00;74808.38;4923915;28;104559;-72
2024/03/01 09:22:54;;;;;;;;;74.33;58.00;;;;;-143.90;100.00;74795.97;4923995;28;102399;-72
2024/03/01 09:25:43;;;;;;;;;60.75;48.25;;;;;-143.90;100.00;74773.22;4926782;28;106589;-72
2024/03/01 09:28:12;;;;;;;;;48.00;39.25;;;;;-143.90;100.00;74752.56;4919170;28;108614;-72
2024/03/01 09:30:39;;;;;;;;;52.00;41.75;;;;;-143.90;100.00;74748.44;4925744;28;102093;-72
2024/03/01 09:33:12;;;;;;;;;52.25;42.00;;;;;-143.90;100.00;74744.28;4930109;28;102157;-72
2024/03/01 09:35:45;;;;;;;;;43.75;38.25;;;;;-143.90;100.00;74725.69;4927924;28;103986;-74
2024/03/01 09:38:14;;;;;;;;;47.25;38.75;;;;;-143.90;100.00;74725.69;4902742;28;103993;-73
2024/03/01 09:40:49;;;;;;;;;33.00;30.25;;;;;-143.90;100.00;74719.47;4932162;28;101943;-72
2024/03/01 09:43:41;;;;;;;;;33.75;32.00;;;;;-143.90;100.00;74692.63;4926749;28;102124;-72
2024/03/01 09:46:40;;;;;;;;;31.00;27.50;;;;;-143.90;100.00;74671.94;4922423;28;102360;-72
2024/03/01 09:49:44;;;;;;;;;59.25;48.00;;;;;-143.90;100.00;74688.47;4925099;28;108730;-72
2024/03/01 09:52:39;;;;;;;;;66.75;52.00;;;;;-143.90;100.00;74694.69;4862303;28;103904;-72
2024/03/01 09:55:42;;;;;;;;;64.25;51.00;;;;;-143.90;100.00;74684.34;4926852;28;102378;-72
2024/03/01 09:58:33;;;;;;;;;69.25;54.75;;;;;-143.90;100.00;74659.53;4922157;28;103665;-72
2024/03/01 10:01:17;;;;;;;;;69.50;54.25;;;;;-143.90;100.00;74659.53;4927771;28;108506;-73
2024/03/01 10:04:11;;;;;;;;;56.50;38.00;;;;;-143.90;100.00;74651.28;4926649;28;102103;-73
2024/03/01 10:06:47;;;;;;;;;53.00;39.75;;;;;-143.90;100.00;74616.13;4913770;28;102085;-73
2024/03/01 10:09:24;;;;;;;;;57.00;45.00;;;;;-143.90;100.00;74630.59;4929140;28;102361;-73
2024/03/01 10:12:14;;;;;;;;;58.75;45.75;;;;;-143.90;100.00;74632.66;4925663;28;103378;-73
2024/03/01 10:15:02;;;;;;;;;57.25;42.50;;;;;-143.90;100.00;74607.84;4929574;28;102037;-72
2024/03/01 10:17:46;;;;;;;;;56.00;43.00;;;;;-143.90;100.00;74601.66;4929225;28;102533;-73
2024/03/01 10:20:34;;;;;;;;;58.25;45.50;;;;;-143.90;100.00;74612.00;4918141;28;103280;-74
2024/03/01 10:23:46;;;;;;;;;56.50;46.75;;;;;-143.90;100.00;74589.25;4927618;28;104272;-73
2024/03/01 10:26:32;;;;;;;;;52.75;41.25;;;;;-143.90;100.00;74585.13;4913851;28;102481;-74
2024/03/01 10:29:01;;;;;;;;;62.75;49.50;;;;;-143.90;100.00;74597.53;4925045;28;102457;-73
2024/03/01 10:32:10;;;;;;;;;54.75;44.00;;;;;-143.90;100.00;74576.84;4928388;28;102572;-73
2024/03/01 10:35:05;;;;;;;;;54.00;44.00;;;;;-143.90;100.00;74589.25;4923264;28;109508;-73
2024/03/01 10:37:42;;;;;;;;;51.75;41.50;;;;;-143.90;100.00;74589.25;4924719;28;102685;-73
2024/03/01 10:40:17;;;;;;;;;52.50;42.00;;;;;-143.90;100.00;74564.44;4921533;28;103300;-73
2024/03/01 10:43:12;;;;;;;;;49.75;40.75;;;;;-143.90;100.00;74556.19;4928310;28;103420;-73
2024/03/01 10:45:55;;;;;;;;;54.75;44.00;;;;;-143.90;100.00;74547.91;4923811;28;109213;-73
2024/03/01 10:48:23;;;;;;;;;51.50;39.50;;;;;-143.90;100.00;74556.19;4921747;28;102187;-73
2024/03/01 10:50:58;;;;;;;;;56.75;43.50;;;;;-143.90;100.00;74552.03;4931693;28;103509;-73
2024/03/01 10:53:30;;;;;;;;;46.50;39.25;;;;;-143.90;100.00;74539.66;4929424;28;102090;-73
2024/03/01 10:56:12;;;;;;;;;53.00;43.25;;;;;-143.90;100.00;74552.03;4926920;28;103964;-73
2024/03/01 10:58:49;;;;;;;;;68.25;52.00;;;;;-143.90;100.00;74527.25;4926311;28;102382;-73
2024/03/01 11:01:46;;;;;;;;;55.75;44.00;;;;;-143.90;100.00;74506.56;4927248;28;102117;-73